Time,TemperatureF,DewpointF,PressureIn,WindDirection,WindDirectionDegrees,WindSpeedMPH,WindSpeedGustMPH,Humidity,HourlyPrecipIn,Conditions,Clouds,dailyrainin,SoftwareType,DateUTC
2013-04-17 00:11:00,68.6,66.0,30.01,SSW,196,0.0,0.0,92,0.00,,,0.00,weatherlink.com 1.10,2013-04-17 05:11:00,
2013-04-17 00:26:00,67.8,66.0,30.01,SSW,196,0.0,0.0,93,0.00,,,0.00,weatherlink.com 1.10,2013-04-17 05:26:00,
2013-04-17 00:41:00,67.1,65.0,30.01,SSW,196,0.0,0.0,93,0.00,,,0.00,weatherlink.com 1.10,2013-04-17 05:41:00,
2013-04-17 00:56:00,66.7,65.0,30.01,SSW,196,0.0,0.0,94,0.00,,,0.00,weatherlink.com 1.10,2013-04-17 05:56:00,
2013-04-17 01:11:00,65.9,64.0,30.01,SSW,196,0.0,0.0,94,0.00,,,0.00,weatherlink.com 1.10,2013-04-17 06:11:00,
2013-04-17 01:26:00,65.6,64.0,30.01,SSW,196,0.0,0.0,95,0.00,,,0.00,weatherlink.com 1.10,2013-04-17 06:26:00,
2013-04-17 01:41:00,65.5,64.0,30.01,SSW,196,0.0,0.0,95,0.00,,,0.00,weatherlink.com 1.10,2013-04-17 06:41:00,
2013-04-17 01:56:00,65.7,65.0,30.00,SSW,196,0.0,0.0,96,0.00,,,0.00,weatherlink.com 1.10,2013-04-17 06:56:00,
2013-04-17 02:11:00,65.4,64.0,30.00,SSW,196,0.0,0.0,96,0.00,,,0.00,weatherlink.com 1.10,2013-04-17 07:11:00,
2013-04-17 02:26:00,65.7,65.0,30.00,SSW,196,0.0,0.0,96,0.00,,,0.00,weatherlink.com 1.10,2013-04-17 07:26:00,
2013-04-17 02:42:00,66.3,65.0,30.00,SSW,196,0.0,0.0,96,0.00,,,0.00,weatherlink.com 1.10,2013-04-17 07:42:00,
2013-04-17 02:57:00,65.7,65.0,30.00,SSW,196,0.0,1.0,96,0.00,,,0.00,weatherlink.com 1.10,2013-04-17 07:57:00,
2013-04-17 03:12:00,65.5,64.0,30.00,SSW,196,0.0,0.0,96,0.00,,,0.00,weatherlink.com 1.10,2013-04-17 08:12:00,
2013-04-17 03:27:00,65.8,65.0,30.00,SSW,196,0.0,0.0,96,0.00,,,0.00,weatherlink.com 1.10,2013-04-17 08:27:00,
2013-04-17 03:42:00,65.4,64.0,30.00,SSW,196,0.0,0.0,96,0.00,,,0.00,weatherlink.com 1.10,2013-04-17 08:42:00,
2013-04-17 03:58:00,64.3,63.0,30.00,SSW,196,0.0,0.0,96,0.00,,,0.00,weatherlink.com 1.10,2013-04-17 08:58:00,
2013-04-17 04:12:00,64.4,64.0,30.00,SSW,196,0.0,0.0,97,0.00,,,0.00,weatherlink.com 1.10,2013-04-17 09:12:00,
2013-04-17 04:27:00,63.6,63.0,30.00,SSW,196,0.0,0.0,97,0.00,,,0.00,weatherlink.com 1.10,2013-04-17 09:27:00,
2013-04-17 04:42:00,64.7,64.0,30.00,SSW,196,0.0,0.0,98,0.00,,,0.00,weatherlink.com 1.10,2013-04-17 09:42:00,
2013-04-17 04:57:00,64.4,64.0,30.00,SSW,196,0.0,0.0,97,0.00,,,0.00,weatherlink.com 1.10,2013-04-17 09:57:00,
2013-04-17 05:12:00,64.9,64.0,30.00,SSW,196,0.0,0.0,97,0.00,,,0.00,weatherlink.com 1.10,2013-04-17 10:12:00,
2013-04-17 05:27:00,64.5,64.0,30.00,SSW,196,0.0,0.0,98,0.00,,,0.00,weatherlink.com 1.10,2013-04-17 10:27:00,
2013-04-17 05:42:00,63.7,63.0,30.01,SSW,196,0.0,0.0,97,0.00,,,0.00,weatherlink.com 1.10,2013-04-17 10:42:00,
2013-04-17 05:57:00,64.3,64.0,30.02,SSW,196,0.0,0.0,98,0.00,,,0.00,weatherlink.com 1.10,2013-04-17 10:57:00,
2013-04-17 06:12:00,63.7,63.0,30.02,SSW,196,0.0,0.0,98,0.00,,,0.00,weatherlink.com 1.10,2013-04-17 11:12:00,
2013-04-17 06:27:00,64.0,64.0,30.03,SSW,196,0.0,0.0,98,0.00,,,0.00,weatherlink.com 1.10,2013-04-17 11:27:00,
2013-04-17 06:42:00,64.1,64.0,30.04,SSW,196,0.0,0.0,98,0.00,,,0.00,weatherlink.com 1.10,2013-04-17 11:42:00,
2013-04-17 06:57:00,64.9,64.0,30.04,SSW,196,0.0,0.0,98,0.00,,,0.00,weatherlink.com 1.10,2013-04-17 11:57:00,
2013-04-17 07:12:00,66.5,66.0,30.04,SSW,196,0.0,1.0,99,0.00,,,0.00,weatherlink.com 1.10,2013-04-17 12:12:00,
2013-04-17 07:27:00,67.6,67.0,30.04,North,360,0.0,2.0,98,0.00,,,0.00,weatherlink.com 1.10,2013-04-17 12:27:00,
2013-04-17 07:42:00,68.4,68.0,30.04,South,170,3.0,4.0,97,0.00,,,0.00,weatherlink.com 1.10,2013-04-17 12:42:00,
2013-04-17 07:57:00,69.3,68.0,30.03,SSE,164,2.0,5.0,95,0.00,,,0.00,weatherlink.com 1.10,2013-04-17 12:57:00,
2013-04-17 08:12:00,70.9,69.0,30.03,SSE,159,3.0,6.0,93,0.00,,,0.00,weatherlink.com 1.10,2013-04-17 13:12:00,
2013-04-17 08:27:00,72.2,69.0,30.02,SE,146,2.0,5.0,90,0.00,,,0.00,weatherlink.com 1.10,2013-04-17 13:27:00,
2013-04-17 08:42:00,73.5,70.0,30.02,SW,223,2.0,7.0,87,0.00,,,0.00,weatherlink.com 1.10,2013-04-17 13:42:00,
2013-04-17 08:57:00,74.8,70.0,30.02,SW,223,5.0,8.0,85,0.00,,,0.00,weatherlink.com 1.10,2013-04-17 13:57:00,
2013-04-17 09:13:00,75.8,71.0,30.02,SW,217,7.0,9.0,84,0.00,,,0.00,weatherlink.com 1.10,2013-04-17 14:13:00,
2013-04-17 09:28:00,76.4,71.0,30.02,SSW,197,5.0,10.0,82,0.00,,,0.00,weatherlink.com 1.10,2013-04-17 14:28:00,
2013-04-17 09:43:00,77.2,71.0,30.01,SSE,153,2.0,10.0,81,0.00,,,0.00,weatherlink.com 1.10,2013-04-17 14:43:00,
2013-04-17 09:58:00,78.2,72.0,30.01,SSE,167,4.0,10.0,80,0.00,,,0.00,weatherlink.com 1.10,2013-04-17 14:58:00,
2013-04-17 10:13:00,78.1,71.0,30.01,WSW,246,6.0,8.0,78,0.00,,,0.00,weatherlink.com 1.10,2013-04-17 15:13:00,
2013-04-17 10:28:00,78.9,71.0,30.01,SSE,147,5.0,9.0,76,0.00,,,0.00,weatherlink.com 1.10,2013-04-17 15:28:00,
2013-04-17 10:43:00,80.2,72.0,30.01,SW,217,5.0,12.0,75,0.00,,,0.00,weatherlink.com 1.10,2013-04-17 15:43:00,
2013-04-17 10:58:00,80.0,70.0,30.01,South,183,7.0,13.0,72,0.00,,,0.00,weatherlink.com 1.10,2013-04-17 15:58:00,
2013-04-17 11:13:00,78.9,70.0,30.00,South,190,4.0,10.0,74,0.00,,,0.00,weatherlink.com 1.10,2013-04-17 16:13:00,
2013-04-17 11:28:00,79.1,71.0,30.00,WSW,248,1.0,8.0,75,0.00,,,0.00,weatherlink.com 1.10,2013-04-17 16:28:00,
2013-04-17 11:43:00,79.8,70.0,30.00,SSW,212,8.0,15.0,73,0.00,,,0.00,weatherlink.com 1.10,2013-04-17 16:43:00,
2013-04-17 11:58:00,82.1,71.0,30.00,South,173,6.0,18.0,68,0.00,,,0.00,weatherlink.com 1.10,2013-04-17 16:58:00,
2013-04-17 12:13:00,81.1,69.0,29.99,South,178,7.0,11.0,67,0.00,,,0.00,weatherlink.com 1.10,2013-04-17 17:13:00,
2013-04-17 12:28:00,82.2,70.0,29.99,SW,218,7.0,11.0,67,0.00,,,0.00,weatherlink.com 1.10,2013-04-17 17:28:00,
2013-04-17 12:43:00,81.9,69.0,29.98,SSE,147,4.0,11.0,65,0.00,,,0.00,weatherlink.com 1.10,2013-04-17 17:43:00,
2013-04-17 12:58:00,83.0,70.0,29.97,SSW,195,5.0,10.0,65,0.00,,,0.00,weatherlink.com 1.10,2013-04-17 17:58:00,
2013-04-17 13:13:00,83.5,71.0,29.96,SSW,196,8.0,13.0,67,0.00,,,0.00,weatherlink.com 1.10,2013-04-17 18:13:00,
2013-04-17 13:28:00,82.5,70.0,29.96,South,171,4.0,10.0,67,0.00,,,0.00,weatherlink.com 1.10,2013-04-17 18:28:00,
2013-04-17 13:43:00,83.6,71.0,29.95,SSE,155,4.0,12.0,65,0.00,,,0.00,weatherlink.com 1.10,2013-04-17 18:43:00,
2013-04-17 13:58:00,83.6,70.0,29.94,SE,126,5.0,14.0,63,0.00,,,0.00,weatherlink.com 1.10,2013-04-17 18:58:00,
2013-04-17 14:13:00,84.4,68.0,29.94,SW,214,5.0,15.0,59,0.00,,,0.00,weatherlink.com 1.10,2013-04-17 19:13:00,
2013-04-17 14:28:00,83.8,68.0,29.93,SSW,193,5.0,13.0,59,0.00,,,0.00,weatherlink.com 1.10,2013-04-17 19:28:00,
2013-04-17 14:43:00,84.0,68.0,29.93,SE,142,1.0,11.0,59,0.00,,,0.00,weatherlink.com 1.10,2013-04-17 19:43:00,
2013-04-17 14:58:00,83.9,68.0,29.93,SSW,202,1.0,10.0,60,0.00,,,0.00,weatherlink.com 1.10,2013-04-17 19:58:00,
2013-04-17 15:13:00,83.3,67.0,29.92,SSW,198,4.0,9.0,59,0.00,,,0.00,weatherlink.com 1.10,2013-04-17 20:13:00,
2013-04-17 15:29:00,82.8,68.0,29.91,SSW,197,1.0,9.0,61,0.00,,,0.00,weatherlink.com 1.10,2013-04-17 20:29:00,
2013-04-17 15:44:00,82.7,68.0,29.90,SE,140,1.0,7.0,61,0.00,,,0.00,weatherlink.com 1.10,2013-04-17 20:44:00,
2013-04-17 15:59:00,82.1,68.0,29.89,SSW,201,0.0,5.0,63,0.00,,,0.00,weatherlink.com 1.10,2013-04-17 20:59:00,
2013-04-17 16:14:00,82.6,69.0,29.89,SSE,161,0.0,5.0,63,0.00,,,0.00,weatherlink.com 1.10,2013-04-17 21:14:00,
2013-04-17 16:29:00,81.9,68.0,29.89,SSW,203,7.0,10.0,63,0.00,,,0.00,weatherlink.com 1.10,2013-04-17 21:29:00,
2013-04-17 16:44:00,73.8,66.0,29.90,SSE,163,1.0,10.0,76,0.01,,,0.01,weatherlink.com 1.10,2013-04-17 21:44:00,
2013-04-17 17:14:00,75.2,69.0,29.88,SW,225,0.0,2.0,81,0.02,,,0.02,weatherlink.com 1.10,2013-04-17 22:14:00,
2013-04-17 17:29:00,75.9,70.0,29.86,SW,223,0.0,4.0,82,0.02,,,0.02,weatherlink.com 1.10,2013-04-17 22:29:00,
2013-04-17 17:44:00,75.7,70.0,29.86,SW,223,1.0,2.0,83,0.01,,,0.02,weatherlink.com 1.10,2013-04-17 22:44:00,
2013-04-17 17:59:00,76.1,71.0,29.84,SE,136,0.0,2.0,83,0.00,,,0.02,weatherlink.com 1.10,2013-04-17 22:59:00,
2013-04-17 18:14:00,76.4,71.0,29.84,South,171,1.0,2.0,82,0.00,,,0.02,weatherlink.com 1.10,2013-04-17 23:14:00,
2013-04-17 18:29:00,76.6,70.0,29.83,South,171,0.0,2.0,80,0.00,,,0.02,weatherlink.com 1.10,2013-04-17 23:29:00,
2013-04-17 18:44:00,76.8,71.0,29.83,ESE,119,0.0,4.0,82,0.00,,,0.02,weatherlink.com 1.10,2013-04-17 23:44:00,
2013-04-17 18:59:00,76.2,71.0,29.83,SE,128,0.0,1.0,83,0.00,,,0.02,weatherlink.com 1.10,2013-04-17 23:59:00,
2013-04-17 19:14:00,74.6,70.0,29.82,SE,128,0.0,1.0,86,0.00,,,0.02,weatherlink.com 1.10,2013-04-18 00:14:00,
2013-04-17 19:29:00,73.3,70.0,29.83,SE,128,0.0,0.0,89,0.00,,,0.02,weatherlink.com 1.10,2013-04-18 00:29:00,
2013-04-17 19:44:00,72.2,69.0,29.83,SE,128,0.0,0.0,90,0.00,,,0.02,weatherlink.com 1.10,2013-04-18 00:44:00,
2013-04-17 19:59:00,72.6,69.0,29.83,SE,128,0.0,0.0,88,0.00,,,0.02,weatherlink.com 1.10,2013-04-18 00:59:00,
2013-04-17 20:14:00,73.6,68.0,29.83,SE,128,0.0,1.0,83,0.00,,,0.02,weatherlink.com 1.10,2013-04-18 01:14:00,
2013-04-17 20:44:00,71.6,67.0,29.84,SE,128,0.0,0.0,85,0.00,,,0.02,weatherlink.com 1.10,2013-04-18 01:44:00,
2013-04-17 20:59:00,72.0,67.0,29.84,SE,128,0.0,0.0,83,0.00,,,0.02,weatherlink.com 1.10,2013-04-18 01:59:00,
2013-04-17 21:14:00,71.7,67.0,29.84,SE,128,0.0,2.0,84,0.00,,,0.02,weatherlink.com 1.10,2013-04-18 02:14:00,
2013-04-17 21:29:00,72.3,67.0,29.84,SSE,157,1.0,4.0,82,0.00,,,0.02,weatherlink.com 1.10,2013-04-18 02:29:00,
2013-04-17 21:44:00,73.6,67.0,29.84,SE,131,1.0,5.0,79,0.00,,,0.02,weatherlink.com 1.10,2013-04-18 02:44:00,
2013-04-17 21:59:00,74.4,67.0,29.84,SE,136,5.0,9.0,77,0.00,,,0.02,weatherlink.com 1.10,2013-04-18 02:59:00,
2013-04-17 22:14:00,74.8,66.0,29.84,SSE,155,7.0,8.0,75,0.00,,,0.02,weatherlink.com 1.10,2013-04-18 03:14:00,
2013-04-17 22:29:00,74.8,66.0,29.84,South,180,2.0,7.0,74,0.00,,,0.02,weatherlink.com 1.10,2013-04-18 03:29:00,
2013-04-17 22:44:00,74.3,66.0,29.83,SSE,150,2.0,7.0,75,0.00,,,0.02,weatherlink.com 1.10,2013-04-18 03:44:00,
2013-04-17 22:59:00,74.6,66.0,29.82,SSE,161,3.0,11.0,75,0.00,,,0.02,weatherlink.com 1.10,2013-04-18 03:59:00,
2013-04-17 23:14:00,74.7,66.0,29.82,SSE,162,6.0,14.0,75,0.00,,,0.02,weatherlink.com 1.10,2013-04-18 04:14:00,
2013-04-17 23:29:00,74.5,67.0,29.82,SSE,165,5.0,9.0,76,0.00,,,0.02,weatherlink.com 1.10,2013-04-18 04:29:00,
2013-04-17 23:44:00,74.6,67.0,29.81,WSW,247,6.0,14.0,76,0.00,,,0.02,weatherlink.com 1.10,2013-04-18 04:44:00,
2013-04-17 23:59:00,74.7,67.0,29.81,South,171,3.0,12.0,76,0.00,,,0.02,weatherlink.com 1.10,2013-04-18 04:59:00,